createdAt,value
2018-03-08T00:01:52.098Z,98203.13
2018-03-08T00:04:20.551Z,118368.60
2018-03-08T00:06:49.082Z,118368.60
2018-03-08T00:09:17.542Z,118368.60
2018-03-08T00:11:46.009Z,118368.60
2018-03-08T00:14:14.540Z,118368.60
2018-03-08T00:16:42.984Z,98213.58
2018-03-08T00:19:11.479Z,118368.60
2018-03-08T00:21:39.997Z,118368.60
2018-03-08T00:24:08.454Z,118368.60
2018-03-08T00:26:36.919Z,118368.60
2018-03-08T00:29:05.440Z,118368.60
2018-03-08T00:31:33.893Z,118368.60
2018-03-08T00:34:02.383Z,118368.60
2018-03-08T00:36:30.918Z,118368.60
2018-03-08T00:38:59.398Z,118368.60
2018-03-08T00:41:27.877Z,118368.60
2018-03-08T00:43:56.388Z,118368.60
2018-03-08T00:46:24.854Z,118368.60
2018-03-08T00:48:53.318Z,118368.60
2018-03-08T00:51:21.841Z,118368.60
2018-03-08T00:53:50.313Z,118368.60
2018-03-08T00:56:18.797Z,118368.60
2018-03-08T00:58:47.302Z,118368.60
2018-03-08T01:01:15.783Z,118368.60
2018-03-08T01:03:44.244Z,118368.60
2018-03-08T01:06:12.777Z,118368.60
2018-03-08T01:08:41.251Z,118368.60
2018-03-08T01:11:09.725Z,118368.60
2018-03-08T01:13:38.258Z,118368.60
2018-03-08T01:16:06.725Z,118368.60
2018-03-08T01:18:35.213Z,118368.60
2018-03-08T01:21:03.719Z,118368.60
2018-03-08T01:23:32.171Z,118368.60
2018-03-08T01:26:00.630Z,118368.60
2018-03-08T01:28:29.134Z,118368.60
2018-03-08T01:30:57.637Z,118368.60
2018-03-08T01:33:26.106Z,118368.60
2018-03-08T01:35:55.403Z,118368.60
2018-03-08T01:38:23.873Z,118368.60
2018-03-08T01:40:52.347Z,118368.60
2018-03-08T01:43:21.069Z,118368.60
2018-03-08T01:45:49.640Z,118368.60
2018-03-08T01:48:18.158Z,118368.60
2018-03-08T01:50:46.661Z,118368.60
2018-03-08T01:53:15.133Z,118368.60
2018-03-08T01:55:43.601Z,118368.60
2018-03-08T01:58:12.122Z,118368.60
2018-03-08T02:00:40.594Z,118368.60
2018-03-08T02:03:09.073Z,118368.60
2018-03-08T02:05:37.562Z,118368.60
2018-03-08T02:08:06.012Z,118368.60
2018-03-08T02:10:34.486Z,118368.60
2018-03-08T02:13:03.183Z,118368.60
2018-03-08T02:15:31.652Z,118368.60
2018-03-08T02:18:00.117Z,118368.60
2018-03-08T02:20:28.620Z,118368.60
2018-03-08T02:22:57.083Z,118368.60
2018-03-08T02:25:25.554Z,118368.60
2018-03-08T02:27:54.062Z,118368.60
2018-03-08T02:30:22.511Z,118368.60
2018-03-08T02:32:51.006Z,118368.60
2018-03-08T02:35:19.539Z,118368.60
2018-03-08T02:37:48.015Z,118368.60
2018-03-08T02:40:16.494Z,118368.60
2018-03-08T02:42:45.004Z,118368.60
2018-03-08T02:45:13.481Z,118368.60
2018-03-08T02:47:41.946Z,118368.60
2018-03-08T02:50:10.622Z,118368.60
2018-03-08T02:52:39.102Z,118368.60
2018-03-08T02:55:07.582Z,118368.60
2018-03-08T02:57:36.093Z,118368.60
2018-03-08T03:00:04.593Z,118368.60
2018-03-08T03:02:33.307Z,118368.60
2018-03-08T03:05:02.104Z,118368.60
2018-03-08T03:07:30.579Z,118368.60
2018-03-08T03:09:59.089Z,118368.60
2018-03-08T03:12:27.587Z,118368.60
2018-03-08T03:14:56.057Z,118368.60
2018-03-08T03:17:24.537Z,118368.60
2018-03-08T03:19:53.064Z,118368.60
2018-03-08T03:22:21.517Z,118368.60
2018-03-08T03:24:49.992Z,118368.60
2018-03-08T03:27:18.561Z,118368.60
2018-03-08T03:29:47.380Z,118368.60
2018-03-08T03:32:15.864Z,118368.60
2018-03-08T03:34:44.371Z,118368.60
2018-03-08T03:37:12.848Z,118368.60
2018-03-08T03:39:41.317Z,118368.60
2018-03-08T03:42:09.821Z,118368.60
2018-03-08T03:44:38.291Z,118368.60
2018-03-08T03:47:06.762Z,118368.60
2018-03-08T03:49:35.283Z,118368.60
2018-03-08T03:52:03.796Z,118368.60
2018-03-08T03:54:32.274Z,118368.60
2018-03-08T03:57:00.805Z,118368.60
2018-03-08T04:02:03.878Z,118368.60
2018-03-08T04:04:32.424Z,118368.60
2018-03-08T04:07:00.853Z,118368.60
2018-03-08T04:09:29.380Z,118368.60
2018-03-08T04:11:57.841Z,118368.60
2018-03-08T04:14:26.310Z,118368.60
2018-03-08T04:16:54.839Z,118368.60
2018-03-08T04:19:23.311Z,118368.60
2018-03-08T04:21:51.788Z,118368.60
2018-03-08T04:24:20.284Z,118368.60
2018-03-08T04:26:48.742Z,118368.60
2018-03-08T04:29:17.194Z,118368.60
2018-03-08T04:31:45.717Z,118368.60
2018-03-08T04:34:14.192Z,118368.60
2018-03-08T04:36:42.649Z,118368.60
2018-03-08T04:39:11.168Z,118368.60
2018-03-08T04:41:39.659Z,118368.60
2018-03-08T04:44:08.174Z,118368.60
2018-03-08T04:46:36.684Z,118368.60
2018-03-08T04:49:05.154Z,118368.60
2018-03-08T04:51:33.629Z,118368.60
2018-03-08T04:54:02.145Z,118368.60
2018-03-08T04:56:30.612Z,118368.60
2018-03-08T04:58:59.105Z,118368.60
2018-03-08T05:01:27.617Z,118368.60
2018-03-08T05:03:56.457Z,118368.60
2018-03-08T05:06:24.931Z,118368.60
2018-03-08T05:08:53.460Z,118368.60
2018-03-08T05:11:21.943Z,118368.60
2018-03-08T05:13:50.438Z,118368.60
2018-03-08T05:16:18.931Z,118368.60
2018-03-08T05:18:47.390Z,118368.60
2018-03-08T05:21:15.868Z,118368.60
2018-03-08T05:23:44.452Z,118368.60
2018-03-08T05:26:12.898Z,118368.60
2018-03-08T05:28:41.374Z,118368.60
2018-03-08T05:31:09.904Z,118368.60
2018-03-08T05:33:38.388Z,118368.60
2018-03-08T05:36:06.851Z,118368.60
2018-03-08T05:38:35.369Z,118368.60
2018-03-08T05:41:03.824Z,118368.60
2018-03-08T05:43:32.295Z,118368.60
2018-03-08T05:46:00.890Z,118368.60
2018-03-08T05:48:29.363Z,118368.60
2018-03-08T05:50:57.820Z,118368.60
2018-03-08T05:53:26.344Z,118368.60
2018-03-08T05:55:54.792Z,118368.60
2018-03-08T05:58:23.242Z,118368.60
2018-03-08T06:00:51.804Z,118368.60
2018-03-08T06:03:20.286Z,118368.60
2018-03-08T06:05:48.748Z,118368.60
2018-03-08T06:08:17.279Z,118368.60
2018-03-08T06:10:45.755Z,118368.60
2018-03-08T06:13:14.228Z,118368.60
2018-03-08T06:15:42.753Z,118368.60
2018-03-08T06:18:11.235Z,118368.60
2018-03-08T06:20:40.129Z,118368.60
2018-03-08T06:23:08.748Z,118368.60
2018-03-08T06:25:37.214Z,118368.60
2018-03-08T06:28:05.685Z,118368.60
2018-03-08T06:30:34.202Z,118368.60
2018-03-08T06:33:02.673Z,118368.60
2018-03-08T06:35:31.144Z,118368.60
2018-03-08T06:37:59.697Z,118368.60
2018-03-08T06:40:28.162Z,118368.60
2018-03-08T06:42:56.614Z,118368.60
2018-03-08T06:45:25.111Z,118368.60
2018-03-08T06:47:53.588Z,118368.60
2018-03-08T06:50:22.074Z,118368.60
2018-03-08T06:52:50.605Z,118368.60
2018-03-08T06:55:19.076Z,118368.60
2018-03-08T06:57:47.569Z,118368.60
2018-03-08T07:00:16.092Z,118368.60
2018-03-08T07:02:44.626Z,118368.60
2018-03-08T07:05:13.094Z,118368.60
2018-03-08T07:07:41.619Z,118368.60
2018-03-08T07:10:10.150Z,118368.60
2018-03-08T07:12:38.622Z,118368.60
2018-03-08T07:15:07.249Z,118368.60
2018-03-08T07:17:48.430Z,98573.28
2018-03-08T07:20:16.917Z,98572.55
2018-03-08T07:22:45.400Z,98572.62
2018-03-08T07:25:13.828Z,98573.42
2018-03-08T07:27:42.293Z,98577.80
2018-03-08T07:30:10.715Z,98581.55
2018-03-08T07:32:39.134Z,98579.16
2018-03-08T07:35:07.626Z,98575.75
2018-03-08T07:37:36.072Z,98576.45
2018-03-08T07:40:04.545Z,98581.19
2018-03-08T07:42:33.029Z,98581.22
2018-03-08T07:45:01.471Z,98580.78
2018-03-08T07:47:29.941Z,98588.14
2018-03-08T07:49:58.428Z,98591.45
2018-03-08T07:52:26.855Z,98596.48
2018-03-08T07:54:55.269Z,98592.08
2018-03-08T07:57:23.743Z,98596.09
2018-03-08T07:59:52.193Z,98600.19
2018-03-08T08:02:20.625Z,98607.97
2018-03-08T08:05:00.896Z,98608.97
2018-03-08T08:07:41.065Z,98613.19
2018-03-08T08:10:09.544Z,98612.88
2018-03-08T08:12:37.971Z,98612.19
2018-03-08T08:15:06.403Z,98617.08
2018-03-08T08:17:34.864Z,98613.66
2018-03-08T08:20:03.307Z,98615.72
2018-03-08T08:22:31.728Z,98624.69
2018-03-08T08:25:00.208Z,98633.05
2018-03-08T08:27:28.656Z,98624.34
2018-03-08T08:29:57.086Z,98629.87
2018-03-08T08:32:25.566Z,98625.02
2018-03-08T08:34:54.058Z,98629.34
2018-03-08T08:37:22.494Z,98633.81
2018-03-08T08:39:50.959Z,98628.61
2018-03-08T08:42:19.386Z,98631.44
2018-03-08T08:44:47.823Z,98634.75
2018-03-08T08:47:16.349Z,98636.25
2018-03-08T08:49:44.807Z,98634.75
2018-03-08T08:52:13.257Z,98641.92
2018-03-08T08:54:41.761Z,98641.29
2018-03-08T08:57:10.209Z,98636.10
2018-03-08T08:59:38.652Z,98641.30
2018-03-08T09:02:07.129Z,98636.98
2018-03-08T09:04:35.563Z,98636.10
2018-03-08T09:07:04.109Z,98634.38
2018-03-08T09:09:32.607Z,98624.45
2018-03-08T09:12:01.038Z,98627.19
2018-03-08T09:14:29.465Z,98625.11
2018-03-08T09:16:57.926Z,98631.59
2018-03-08T09:19:26.353Z,98633.22
2018-03-08T09:21:54.815Z,98628.80
2018-03-08T09:24:23.307Z,98616.84
2018-03-08T09:26:51.748Z,98631.41
2018-03-08T09:29:20.187Z,98628.27
2018-03-08T09:31:48.679Z,98626.11
2018-03-08T09:34:17.107Z,98635.30
2018-03-08T09:36:45.568Z,98626.12
2018-03-08T09:39:14.043Z,98622.52
2018-03-08T09:41:42.476Z,98625.25
2018-03-08T09:44:10.907Z,98627.50
2018-03-08T09:46:39.398Z,98627.35
2018-03-08T09:49:07.890Z,98630.83
2018-03-08T09:51:36.295Z,98633.92
2018-03-08T09:54:04.796Z,98624.30
2018-03-08T09:56:33.203Z,98633.52
2018-03-08T09:59:01.646Z,98623.41
2018-03-08T10:01:30.885Z,98625.53
2018-03-08T10:03:59.318Z,98623.79
2018-03-08T10:06:27.755Z,98615.77
2018-03-08T10:08:56.305Z,98615.86
2018-03-08T10:11:24.733Z,98623.93
2018-03-08T10:13:53.156Z,98616.73
2018-03-08T10:16:21.625Z,98616.89
2018-03-08T10:18:50.049Z,98612.48
2018-03-08T10:21:44.124Z,98615.75
2018-03-08T10:23:46.997Z,98613.01
2018-03-08T10:26:15.422Z,98608.86
2018-03-08T10:28:43.834Z,98611.62
2018-03-08T10:31:13.148Z,98603.77
2018-03-08T10:33:41.574Z,98595.64
2018-03-08T10:36:10.000Z,98602.34
2018-03-08T10:38:39.276Z,98579.12
2018-03-08T10:41:07.706Z,98590.02
2018-03-08T10:43:36.145Z,98585.95
2018-03-08T10:46:04.653Z,98592.78
2018-03-08T10:48:33.071Z,98584.45
2018-03-08T10:51:01.886Z,98585.56
2018-03-08T10:53:30.350Z,118368.60
2018-03-08T10:55:58.758Z,98576.02
2018-03-08T10:58:27.173Z,98587.42
2018-03-08T11:00:55.627Z,98581.99
2018-03-08T11:03:29.483Z,118368.60
2018-03-08T11:05:57.971Z,98584.55
2018-03-08T11:08:26.425Z,118368.60
2018-03-08T11:10:54.890Z,118368.60
2018-03-08T11:13:23.373Z,98572.38
2018-03-08T11:15:51.832Z,118368.60
2018-03-08T11:18:20.273Z,118368.60
2018-03-08T11:20:48.764Z,118368.60
2018-03-08T11:23:17.213Z,98554.68
2018-03-08T11:25:45.638Z,98555.23
2018-03-08T11:28:14.157Z,98552.80
2018-03-08T11:30:42.608Z,118368.60
2018-03-08T11:33:11.066Z,118368.60
2018-03-08T11:35:39.588Z,118368.60
2018-03-08T11:38:08.031Z,118368.60
2018-03-08T11:40:36.452Z,98553.22
2018-03-08T11:43:04.956Z,118368.60
2018-03-08T11:45:33.399Z,118368.60
2018-03-08T11:48:01.853Z,118368.60
2018-03-08T11:50:30.344Z,118368.60
2018-03-08T11:52:58.804Z,118368.60
2018-03-08T11:55:27.271Z,118368.60
2018-03-08T11:57:55.751Z,118368.60
2018-03-08T12:00:24.202Z,118368.60
2018-03-08T12:02:52.688Z,118368.60
2018-03-08T12:05:21.427Z,118368.60
2018-03-08T12:07:49.885Z,118368.60
2018-03-08T12:10:18.352Z,118368.60
2018-03-08T12:12:46.878Z,118368.60
2018-03-08T12:15:15.328Z,118368.60
2018-03-08T12:17:44.022Z,118368.60
2018-03-08T12:20:12.516Z,118368.60
2018-03-08T12:22:40.972Z,118368.60
2018-03-08T12:25:09.448Z,118368.60
2018-03-08T12:27:37.957Z,118368.60
2018-03-08T12:30:06.416Z,118368.60
2018-03-08T12:32:34.877Z,118368.60
2018-03-08T12:35:03.386Z,118368.60
2018-03-08T12:37:31.847Z,118368.60
2018-03-08T12:40:13.376Z,118368.60
2018-03-08T12:42:41.839Z,118368.60
2018-03-08T12:45:10.311Z,118368.60
2018-03-08T12:47:38.813Z,118368.60
2018-03-08T12:50:07.264Z,118368.60
2018-03-08T12:52:35.714Z,118368.60
2018-03-08T12:55:04.219Z,118368.60
2018-03-08T12:57:32.663Z,118368.60
2018-03-08T13:00:01.110Z,118368.60
2018-03-08T13:02:29.621Z,118368.60
2018-03-08T13:04:58.074Z,118368.60
2018-03-08T13:07:26.528Z,118368.60
2018-03-08T13:09:55.044Z,118368.60
2018-03-08T13:12:23.511Z,118368.60
2018-03-08T13:14:51.993Z,118368.60
2018-03-08T13:17:20.482Z,118368.60
2018-03-08T13:19:48.940Z,118368.60
2018-03-08T13:22:17.398Z,118368.60
2018-03-08T13:24:45.874Z,118368.60
2018-03-08T13:27:14.333Z,118368.60
2018-03-08T13:29:42.784Z,118368.60
2018-03-08T13:32:11.306Z,118368.60
2018-03-08T13:34:39.781Z,118368.60
2018-03-08T13:37:08.259Z,118368.60
2018-03-08T13:39:36.781Z,118368.60
2018-03-08T13:42:05.225Z,118368.60
2018-03-08T13:44:33.664Z,118368.60
2018-03-08T13:47:02.177Z,118368.60
2018-03-08T13:49:36.567Z,118368.60
2018-03-08T13:52:05.070Z,118368.60
2018-03-08T13:54:33.497Z,118368.60
2018-03-08T13:57:01.947Z,118368.60
2018-03-08T13:59:30.448Z,118368.60
2018-03-08T14:01:58.894Z,118368.60
2018-03-08T14:04:27.362Z,118368.60
2018-03-08T14:06:55.866Z,118368.60
2018-03-08T14:09:24.379Z,118368.60
2018-03-08T14:11:52.840Z,118368.60
2018-03-08T14:14:21.511Z,118368.60
2018-03-08T14:16:49.988Z,118368.60
2018-03-08T14:19:18.445Z,118368.60
2018-03-08T14:21:46.940Z,118368.60
2018-03-08T14:24:15.397Z,118368.60
2018-03-08T14:26:43.851Z,118368.60
2018-03-08T14:29:12.711Z,118368.60
2018-03-08T14:31:41.147Z,118368.60
2018-03-08T14:34:09.587Z,118368.60
2018-03-08T14:36:38.088Z,118368.60
2018-03-08T14:39:06.535Z,118368.60
2018-03-08T14:41:35.001Z,118368.60
2018-03-08T14:44:03.531Z,118368.60
2018-03-08T14:46:31.983Z,118368.60
2018-03-08T14:49:00.449Z,118368.60
2018-03-08T14:51:28.953Z,118368.60
2018-03-08T14:53:57.395Z,118368.60
2018-03-08T14:56:25.892Z,118368.60
2018-03-08T14:58:54.392Z,118368.60
2018-03-08T15:01:22.887Z,118368.60
2018-03-08T15:03:51.329Z,118368.60
2018-03-08T15:06:19.867Z,118368.60
2018-03-08T15:08:48.593Z,118368.60
2018-03-08T15:11:17.040Z,118368.60
2018-03-08T15:13:45.803Z,118368.60
2018-03-08T15:16:14.252Z,118368.60
2018-03-08T15:18:42.704Z,118368.60
2018-03-08T15:21:11.250Z,118368.60
2018-03-08T15:23:39.715Z,118368.60
2018-03-08T15:26:08.200Z,118368.60
2018-03-08T15:28:36.705Z,118368.60
2018-03-08T15:31:05.187Z,118368.60
2018-03-08T15:33:33.639Z,118368.60
2018-03-08T15:36:02.214Z,118368.60
2018-03-08T15:38:30.669Z,118368.60
2018-03-08T15:40:59.123Z,118368.60
2018-03-08T15:43:27.621Z,118368.60
2018-03-08T15:45:56.074Z,118368.60
2018-03-08T15:48:24.518Z,118368.60
2018-03-08T15:50:53.031Z,118368.60
2018-03-08T15:53:21.481Z,118368.60
2018-03-08T15:55:49.938Z,118368.60
2018-03-08T15:58:18.438Z,118368.60
2018-03-08T16:00:46.894Z,118368.60
2018-03-08T16:03:15.361Z,118368.60
2018-03-08T16:05:43.887Z,118368.60
2018-03-08T16:11:06.421Z,98345.11
2018-03-08T16:13:34.830Z,98346.03
2018-03-08T16:16:03.272Z,98343.51
2018-03-08T16:18:31.734Z,98337.89
2018-03-08T16:21:00.152Z,98335.73
2018-03-08T16:23:28.566Z,98338.89
2018-03-08T16:25:57.869Z,98346.92
2018-03-08T16:28:26.275Z,98328.48
2018-03-08T16:30:55.438Z,98336.56
2018-03-08T16:33:23.945Z,98316.80
2018-03-08T16:35:52.392Z,98319.66
2018-03-08T16:38:20.825Z,98328.57
2018-03-08T16:40:49.285Z,98335.77
2018-03-08T16:43:17.704Z,98326.06
2018-03-08T16:45:46.114Z,98320.71
2018-03-08T16:48:14.620Z,98326.81
2018-03-08T16:50:43.052Z,98320.83
2018-03-08T16:53:11.473Z,98304.72
2018-03-08T16:55:39.954Z,98312.16
2018-03-08T16:58:08.370Z,98311.75
2018-03-08T17:00:36.823Z,98301.37
2018-03-08T17:03:05.290Z,98297.75
2018-03-08T17:05:33.733Z,98292.36
2018-03-08T17:08:02.152Z,98294.58
2018-03-08T17:10:30.606Z,98295.69
2018-03-08T17:12:59.011Z,98289.14
2018-03-08T17:15:27.447Z,98277.55
2018-03-08T17:17:55.912Z,98279.55
2018-03-08T17:20:24.360Z,98275.59
2018-03-08T17:22:52.776Z,98275.89
2018-03-08T17:25:21.244Z,98273.02
2018-03-08T17:27:49.677Z,98277.19
2018-03-08T17:30:18.106Z,98277.58
2018-03-08T17:32:46.593Z,98277.54
2018-03-08T17:35:15.018Z,98291.56
2018-03-08T17:37:43.466Z,98300.23
2018-03-08T17:40:11.950Z,98291.67
2018-03-08T17:42:40.367Z,98292.92
2018-03-08T17:45:08.785Z,98300.28
2018-03-08T17:47:37.263Z,98289.10
2018-03-08T17:50:05.697Z,98274.49
2018-03-08T17:52:34.127Z,98255.85
2018-03-08T17:55:02.583Z,98244.84
2018-03-08T17:57:31.026Z,98210.54
2018-03-08T17:59:59.514Z,98246.21
2018-03-08T18:02:27.932Z,98256.06
2018-03-08T18:04:56.358Z,98271.51
2018-03-08T18:07:24.779Z,98275.31
2018-03-08T18:09:53.264Z,98298.98
2018-03-08T18:12:21.678Z,98299.20
2018-03-08T18:14:50.095Z,98299.45
2018-03-08T18:17:18.582Z,98304.61
2018-03-08T18:19:46.999Z,98303.23
2018-03-08T18:22:15.426Z,98314.86
2018-03-08T18:24:43.887Z,98308.20
2018-03-08T18:27:12.335Z,98306.63
2018-03-08T18:29:40.745Z,98319.97
2018-03-08T18:32:09.234Z,98319.92
2018-03-08T18:34:37.669Z,98313.52
2018-03-08T18:37:06.088Z,98307.55
2018-03-08T18:39:34.614Z,98282.06
2018-03-08T18:42:03.020Z,98269.38
2018-03-08T18:44:31.449Z,98263.58
2018-03-08T18:46:59.912Z,98283.48
2018-03-08T18:49:28.329Z,98315.22
2018-03-08T18:51:56.746Z,98303.12
2018-03-08T18:54:25.196Z,98321.86
2018-03-08T18:56:53.629Z,98321.71
2018-03-08T18:59:22.030Z,98338.89
2018-03-08T19:01:50.489Z,98325.09
2018-03-08T19:04:18.920Z,98330.94
2018-03-08T19:06:47.346Z,98338.00
2018-03-08T19:09:15.820Z,98326.67
2018-03-08T19:11:44.230Z,98315.88
2018-03-08T19:14:12.684Z,98314.95
2018-03-08T19:16:41.181Z,98329.20
2018-03-08T19:19:09.585Z,98326.20
2018-03-08T19:21:38.246Z,98327.81
2018-03-08T19:24:10.362Z,98316.72
2018-03-08T19:26:39.135Z,98318.03
2018-03-08T19:29:07.560Z,98310.25
2018-03-08T19:31:36.069Z,98318.60
2018-03-08T19:34:04.483Z,98310.32
2018-03-08T19:36:32.900Z,98318.45
2018-03-08T19:39:01.959Z,98327.73
2018-03-08T19:41:30.384Z,98322.19
2018-03-08T19:43:58.867Z,98324.67
2018-03-08T19:46:27.312Z,98337.59
2018-03-08T19:48:56.010Z,98346.78
2018-03-08T19:51:24.437Z,98353.27
2018-03-08T19:53:53.014Z,98355.17
2018-03-08T19:56:21.608Z,98359.64
2018-03-08T19:58:50.061Z,98366.77
2018-03-08T20:01:18.502Z,98379.28
2018-03-08T20:03:46.939Z,98385.52
2018-03-08T20:06:15.365Z,98383.92
2018-03-08T20:08:44.158Z,98386.81
2018-03-08T20:11:12.579Z,98390.05
2018-03-08T20:13:41.002Z,98403.31
2018-03-08T20:16:09.482Z,98404.23
2018-03-08T20:18:37.917Z,98404.64
2018-03-08T20:21:06.389Z,98413.58
2018-03-08T20:23:54.528Z,98418.06
2018-03-08T20:26:22.935Z,98409.53
2018-03-08T20:28:51.335Z,98411.94
2018-03-08T20:31:19.808Z,98423.87
2018-03-08T20:33:48.275Z,98422.72
2018-03-08T20:36:16.697Z,98430.41
2018-03-08T20:38:45.192Z,98432.48
2018-03-08T20:41:13.599Z,98430.17
2018-03-08T20:43:42.020Z,98425.95
2018-03-08T20:46:10.491Z,98425.44
2018-03-08T20:48:38.910Z,98424.86
2018-03-08T20:51:07.333Z,98427.34
2018-03-08T20:53:35.778Z,98428.56
2018-03-08T20:56:04.197Z,98429.48
2018-03-08T20:58:32.595Z,98435.12
2018-03-08T21:01:01.055Z,98429.55
2018-03-08T21:03:29.463Z,98442.09
2018-03-08T21:05:57.868Z,98451.84
2018-03-08T21:08:26.320Z,98457.14
2018-03-08T21:10:54.742Z,98449.53
2018-03-08T21:13:23.168Z,98482.25
2018-03-08T21:15:51.622Z,98496.56
2018-03-08T21:18:20.041Z,98466.16
2018-03-08T21:20:48.457Z,98476.50
2018-03-08T21:23:16.926Z,98479.08
2018-03-08T21:25:45.327Z,98465.86
2018-03-08T21:28:13.758Z,98464.26
2018-03-08T21:30:42.227Z,98469.63
2018-03-08T21:33:11.902Z,98463.88
2018-03-08T21:35:40.315Z,98470.77
2018-03-08T21:38:08.762Z,98475.25
2018-03-08T21:40:37.170Z,98483.92
2018-03-08T21:43:05.591Z,98495.28
2018-03-08T21:45:34.035Z,98489.45
2018-03-08T21:48:02.466Z,98492.98
2018-03-08T21:50:30.874Z,98497.36
2018-03-08T21:52:59.343Z,98495.09
2018-03-08T21:55:27.761Z,98488.92
2018-03-08T21:57:56.180Z,98509.14
2018-03-08T22:00:24.624Z,98507.73
2018-03-08T22:02:53.045Z,98510.84
2018-03-08T22:05:21.446Z,98496.27
2018-03-08T22:07:49.916Z,98511.23
2018-03-08T22:10:18.347Z,98514.54
2018-03-08T22:12:46.786Z,98504.79
2018-03-08T22:15:15.251Z,98508.05
2018-03-08T22:17:43.690Z,98509.65
2018-03-08T22:20:12.117Z,98507.19
2018-03-08T22:22:40.608Z,98512.64
2018-03-08T22:25:09.035Z,98504.03
2018-03-08T22:27:37.470Z,118368.60
2018-03-08T22:30:05.976Z,98513.06
2018-03-08T22:32:34.403Z,118368.60
2018-03-08T22:35:02.838Z,118368.60
2018-03-08T22:37:31.332Z,118368.60
2018-03-08T22:39:59.757Z,98512.97
2018-03-08T22:42:28.195Z,118368.60
2018-03-08T22:44:56.657Z,98520.09
2018-03-08T22:47:25.068Z,98512.74
2018-03-08T22:49:53.496Z,98532.48
2018-03-08T22:52:21.958Z,98525.00
2018-03-08T22:54:50.395Z,98534.91
2018-03-08T22:57:18.818Z,98535.37
2018-03-08T22:59:47.302Z,118368.60
2018-03-08T23:02:15.818Z,118368.60
2018-03-08T23:04:44.252Z,98541.86
2018-03-08T23:07:12.738Z,98538.41
2018-03-08T23:09:41.176Z,98545.69
2018-03-08T23:12:09.627Z,98537.66
2018-03-08T23:14:38.090Z,98535.53
2018-03-08T23:17:06.533Z,98533.70
2018-03-08T23:19:34.939Z,98539.13
2018-03-08T23:22:03.390Z,98537.34
2018-03-08T23:24:31.799Z,98539.25
2018-03-08T23:27:00.227Z,98547.11
2018-03-08T23:29:28.711Z,153398.44
2018-03-08T23:31:57.134Z,98552.58
2018-03-08T23:34:25.569Z,98551.33
2018-03-08T23:36:54.036Z,98549.58
2018-03-08T23:39:22.456Z,98552.70
2018-03-08T23:41:50.890Z,98567.77
2018-03-08T23:44:19.348Z,98559.02
2018-03-08T23:46:47.783Z,98561.72
2018-03-08T23:49:16.216Z,153386.73
2018-03-08T23:51:44.879Z,98572.41
2018-03-08T23:54:13.290Z,98574.73
2018-03-08T23:56:41.705Z,98573.59
2018-03-08T23:59:10.158Z,98578.73
